No.10 Hasshomaru — JD2992 — position and weather

sailwx.info

Track history (hours):
 
Tides and Currents Weather Stations Pressure Air Temp Water Temp Dewpoint Dewpoint Depression Visibility Wind Speed Wind Dir Waves Ship Positions

No.10 Hasshomaru

Last reported at 2016-Jul-23 17:33 UTC. Time now 2016-Aug-31 23:30 UTC.
Position N 36°05' E 140°45'.
Warning: this ship's position is 39 days out of date.

Length 105 m; draft 6.7 m.

Type: Tanker. MMSI: 431001112.

Date/timePositionNaut miles runAvg speedWind from/ knotsBaromVisibWave heightAir tempDewpointWater temp
2016-Jul-23 17:33N 36°05' E 140°45'1110.5
2016-Jul-23 16:33N 35°55' E 140°41'0 0.0
2016-Jul-23 02:33N 35°55' E 140°41'7 6.7
2016-Jul-23 01:33N 36°01' E 140°44'0 0.0
2016-Jul-23 00:21N 36°01' E 140°44'0 0.0
2016-Jul-22 23:33N 36°01' E 140°44'0 0.0
2016-Jul-22 22:33N 36°01' E 140°44'0 0.0
2016-Jul-22 21:24N 36°01' E 140°44'0 0.0
2016-Jul-22 20:27N 36°01' E 140°44'0 0.0
2016-Jul-22 19:30N 36°01' E 140°44'0 0.1
2016-Jul-22 18:33N 36°01' E 140°44'0 0.0
2016-Jul-22 17:33N 36°01' E 140°44'0 0.0
2016-Jul-22 16:33N 36°01' E 140°44'2 2.0
2016-Jul-22 15:33N 36°03' E 140°45'  
2016-Jul-16 13:31N 36°06' E 140°44'1111.6
2016-Jul-16 12:33N 35°55' E 140°41'0 0.0
2016-Jul-16 04:12N 35°55' E 140°41'3 4.0
2016-Jul-16 03:33N 35°57' E 140°42'5 2.3
2016-Jul-16 01:26N 36°02' E 140°44'0 0.0
2016-Jul-16 00:32N 36°02' E 140°44'0 0.0
2016-Jul-15 23:32N 36°02' E 140°44'0 0.0
2016-Jul-15 22:08N 36°02' E 140°44'  
Track history (hours):
 
Tides and Currents Weather Stations Pressure Air Temp Water Temp Dewpoint Dewpoint Depression Visibility Wind Speed Wind Dir Waves Ship Positions

No.10 Hasshomaru

Last reported at 2016-Jul-23 17:33 UTC. Time now 2016-Aug-31 23:30 UTC.
Position N 36°05' E 140°45'.
Warning: this ship's position is 39 days out of date.

Length 105 m; draft 6.7 m.

Type: Tanker. MMSI: 431001112.

Date/timePositionNaut miles runAvg speedWind from/ knotsBaromVisibWave heightAir tempDewpointWater temp
2016-Jul-23 17:33N 36°05' E 140°45'1110.5
2016-Jul-23 16:33N 35°55' E 140°41'0 0.0
2016-Jul-23 02:33N 35°55' E 140°41'7 6.7
2016-Jul-23 01:33N 36°01' E 140°44'0 0.0
2016-Jul-23 00:21N 36°01' E 140°44'0 0.0
2016-Jul-22 23:33N 36°01' E 140°44'0 0.0
2016-Jul-22 22:33N 36°01' E 140°44'0 0.0
2016-Jul-22 21:24N 36°01' E 140°44'0 0.0
2016-Jul-22 20:27N 36°01' E 140°44'0 0.0
2016-Jul-22 19:30N 36°01' E 140°44'0 0.1
2016-Jul-22 18:33N 36°01' E 140°44'0 0.0
2016-Jul-22 17:33N 36°01' E 140°44'0 0.0
2016-Jul-22 16:33N 36°01' E 140°44'2 2.0
2016-Jul-22 15:33N 36°03' E 140°45'  
2016-Jul-16 13:31N 36°06' E 140°44'1111.6
2016-Jul-16 12:33N 35°55' E 140°41'0 0.0
2016-Jul-16 04:12N 35°55' E 140°41'3 4.0
2016-Jul-16 03:33N 35°57' E 140°42'5 2.3
2016-Jul-16 01:26N 36°02' E 140°44'0 0.0
2016-Jul-16 00:32N 36°02' E 140°44'0 0.0
2016-Jul-15 23:32N 36°02' E 140°44'0 0.0
2016-Jul-15 22:08N 36°02' E 140°44'  

Dump ship's entire track history